Time;durP1;ratioP1;P1;durP2;ratioP2;P2;SDS_P1;SDS_P2;PMS_P1;PMS_P2;Temp;Humidity;BMP_temperature;BMP_pressure;BME280_temperature;BME280_humidity;BME280_pressure;Samples;Min_cycle;Max_cycle;Signal;HPM_P1;HPM_P2
2021/10/18 00:01:10;;;;;;;0.50;0.50;;;22.50;45.80;;;;;;6294927;28;20393;-67
2021/10/18 00:04:11;;;;;;;0.77;0.52;;;22.50;45.80;;;;;;6296634;28;20056;-68
2021/10/18 00:07:11;;;;;;;0.82;0.50;;;22.50;45.80;;;;;;6295516;28;20055;-68
2021/10/18 00:10:13;;;;;;;0.85;0.30;;;22.60;45.80;;;;;;6294580;28;20494;-68
2021/10/18 00:13:14;;;;;;;0.40;0.40;;;22.60;45.90;;;;;;6295579;28;20025;-68
2021/10/18 00:16:15;;;;;;;0.55;0.40;;;22.60;45.80;;;;;;6294408;28;20032;-68
2021/10/18 00:19:16;;;;;;;0.88;0.50;;;22.50;45.80;;;;;;6295747;28;20032;-67
2021/10/18 00:22:16;;;;;;;0.55;0.35;;;22.50;45.80;;;;;;6282919;28;20029;-68
2021/10/18 00:25:18;;;;;;;0.40;0.40;;;22.50;45.80;;;;;;6292109;28;20056;-68
2021/10/18 00:28:18;;;;;;;0.57;0.47;;;22.50;45.80;;;;;;6294811;28;20067;-68
2021/10/18 00:31:19;;;;;;;1.05;0.40;;;22.60;46.60;;;;;;6294598;28;20135;-68
2021/10/18 00:34:20;;;;;;;0.63;0.47;;;22.60;46.50;;;;;;6295759;28;20132;-68
2021/10/18 00:37:20;;;;;;;0.50;0.40;;;22.60;45.80;;;;;;6285024;28;20029;-68
2021/10/18 00:40:21;;;;;;;0.50;0.45;;;22.60;45.80;;;;;;6294533;28;20028;-67
2021/10/18 00:43:22;;;;;;;1.20;0.70;;;22.60;45.80;;;;;;6282904;28;20087;-68
2021/10/18 00:46:24;;;;;;;0.68;0.55;;;22.60;45.80;;;;;;6269432;28;20033;-68
2021/10/18 00:49:25;;;;;;;0.80;0.50;;;22.60;45.80;;;;;;6245507;28;20035;-68
2021/10/18 00:52:27;;;;;;;0.75;0.50;;;22.60;45.80;;;;;;6273781;28;20054;-68
2021/10/18 00:55:27;;;;;;;0.70;0.50;;;22.50;45.70;;;;;;6294273;28;20469;-68
2021/10/18 00:58:29;;;;;;;0.40;0.40;;;22.60;45.80;;;;;;6294382;28;20047;-68
2021/10/18 01:01:32;;;;;;;1.08;0.60;;;22.50;45.70;;;;;;6288350;28;20048;-68
2021/10/18 01:04:32;;;;;;;0.70;0.47;;;22.60;45.70;;;;;;6269769;28;20052;-67
2021/10/18 01:07:33;;;;;;;0.55;0.47;;;22.50;45.70;;;;;;6279658;28;20062;-68
2021/10/18 01:10:34;;;;;;;0.75;0.40;;;22.60;45.80;;;;;;6293244;28;20090;-68
2021/10/18 01:13:35;;;;;;;1.05;0.60;;;22.60;45.70;;;;;;6293851;28;20028;-68
2021/10/18 01:16:36;;;;;;;0.90;0.50;;;22.50;45.60;;;;;;6291366;28;20017;-68
2021/10/18 01:19:37;;;;;;;0.75;0.60;;;22.60;45.70;;;;;;6294479;28;20124;-68
2021/10/18 01:22:38;;;;;;;1.13;0.60;;;22.60;45.70;;;;;;6292388;28;20123;-68
2021/10/18 01:25:40;;;;;;;0.45;0.40;;;22.50;45.70;;;;;;6288082;28;20041;-68
2021/10/18 01:28:40;;;;;;;0.30;0.30;;;22.50;45.70;;;;;;6293980;28;20094;-68
2021/10/18 01:31:41;;;;;;;0.60;0.40;;;22.50;46.00;;;;;;6292960;28;20032;-68
2021/10/18 01:34:41;;;;;;;1.52;0.82;;;22.50;45.60;;;;;;6294088;28;20175;-68
2021/10/18 01:37:42;;;;;;;0.55;0.50;;;22.60;45.70;;;;;;6293834;28;20043;-68
2021/10/18 01:40:44;;;;;;;0.70;0.50;;;22.60;45.70;;;;;;6291343;28;20063;-68
2021/10/18 01:43:44;;;;;;;0.73;0.40;;;22.60;45.70;;;;;;6283532;28;20032;-68
2021/10/18 01:46:45;;;;;;;0.63;0.50;;;22.60;45.70;;;;;;6265653;28;20030;-68
2021/10/18 01:49:45;;;;;;;0.50;0.43;;;22.60;45.70;;;;;;6243928;28;20553;-68
2021/10/18 01:52:48;;;;;;;1.20;0.50;;;22.60;45.60;;;;;;6269532;28;20031;-68
2021/10/18 01:55:48;;;;;;;0.50;0.40;;;22.60;45.60;;;;;;6271242;28;20025;-68
2021/10/18 01:58:49;;;;;;;0.50;0.40;;;22.60;45.60;;;;;;6294127;28;20104;-68
2021/10/18 02:01:49;;;;;;;0.52;0.40;;;22.60;45.60;;;;;;6286577;28;20471;-68
2021/10/18 02:04:50;;;;;;;0.40;0.40;;;22.60;45.60;;;;;;6269045;28;20029;-68
2021/10/18 02:07:50;;;;;;;0.50;0.40;;;22.60;45.50;;;;;;6284610;28;20033;-68
2021/10/18 02:10:51;;;;;;;0.30;0.30;;;22.60;45.60;;;;;;6292492;28;20090;-68
2021/10/18 02:13:52;;;;;;;0.60;0.50;;;22.60;45.50;;;;;;6294767;28;20059;-68
2021/10/18 02:16:52;;;;;;;1.15;0.43;;;22.60;45.50;;;;;;6291136;28;20017;-68
2021/10/18 02:19:53;;;;;;;0.55;0.30;;;22.60;45.50;;;;;;6273553;28;20041;-68
2021/10/18 02:22:54;;;;;;;0.90;0.57;;;22.60;45.50;;;;;;6288686;28;20477;-68
2021/10/18 02:25:54;;;;;;;0.40;0.30;;;22.60;45.60;;;;;;6290278;28;20033;-68
2021/10/18 02:28:55;;;;;;;0.52;0.45;;;22.60;45.60;;;;;;6297131;28;20417;-68
2021/10/18 02:31:55;;;;;;;0.57;0.43;;;22.60;45.50;;;;;;6296846;28;20035;-68
2021/10/18 02:34:56;;;;;;;0.30;0.30;;;22.50;45.50;;;;;;6298545;28;20055;-68
2021/10/18 02:37:56;;;;;;;0.65;0.50;;;22.50;45.40;;;;;;6297494;28;20477;-68
2021/10/18 02:40:57;;;;;;;1.02;0.50;;;22.60;45.50;;;;;;6297721;28;20084;-68
2021/10/18 02:43:58;;;;;;;0.75;0.38;;;22.60;45.50;;;;;;6284660;28;20191;-68
2021/10/18 02:46:58;;;;;;;0.40;0.40;;;22.60;45.50;;;;;;6276608;28;20021;-68
2021/10/18 02:49:59;;;;;;;0.65;0.40;;;22.60;45.50;;;;;;6272715;28;20100;-68
2021/10/18 02:52:59;;;;;;;0.85;0.47;;;22.60;45.40;;;;;;6274393;28;20417;-68
2021/10/18 02:56:00;;;;;;;0.68;0.50;;;22.60;45.50;;;;;;6276578;28;20038;-68
2021/10/18 02:59:00;;;;;;;0.52;0.38;;;22.60;45.40;;;;;;6297886;28;20024;-67
2021/10/18 03:02:01;;;;;;;0.77;0.50;;;22.60;45.40;;;;;;6289117;28;20397;-68
2021/10/18 03:05:02;;;;;;;0.63;0.43;;;22.60;45.40;;;;;;6272726;28;20522;-68
2021/10/18 03:08:03;;;;;;;0.30;0.30;;;22.60;45.40;;;;;;6289336;28;20553;-68
2021/10/18 03:11:04;;;;;;;0.30;0.30;;;22.60;45.40;;;;;;6296798;28;20044;-68
2021/10/18 03:14:04;;;;;;;0.60;0.50;;;22.60;45.30;;;;;;6297291;28;20036;-67
2021/10/18 03:17:05;;;;;;;0.40;0.30;;;22.60;45.30;;;;;;6294718;28;20013;-68
2021/10/18 03:20:07;;;;;;;0.50;0.40;;;22.60;45.40;;;;;;6296441;28;20032;-67
2021/10/18 03:23:07;;;;;;;0.30;0.30;;;22.60;45.40;;;;;;6297863;28;20036;-67
2021/10/18 03:26:08;;;;;;;0.73;0.55;;;22.60;45.40;;;;;;6289880;28;20107;-68
2021/10/18 03:29:09;;;;;;;0.95;0.52;;;22.60;45.30;;;;;;6273693;28;20385;-68
2021/10/18 03:32:10;;;;;;;0.75;0.50;;;22.60;45.30;;;;;;6286796;28;20042;-67
2021/10/18 03:35:11;;;;;;;0.40;0.40;;;22.60;45.30;;;;;;6297496;28;20020;-66
2021/10/18 03:38:11;;;;;;;1.40;0.50;;;22.60;45.30;;;;;;6290688;28;20437;-66
2021/10/18 03:41:12;;;;;;;0.45;0.35;;;22.60;45.30;;;;;;6290371;28;20032;-67
2021/10/18 03:44:12;;;;;;;0.40;0.40;;;22.60;45.30;;;;;;6296987;28;20039;-67
2021/10/18 03:47:13;;;;;;;0.30;0.30;;;22.60;45.40;;;;;;6281213;28;20481;-67
2021/10/18 03:50:15;;;;;;;0.52;0.43;;;22.60;46.00;;;;;;6269984;28;20036;-67
2021/10/18 03:53:16;;;;;;;0.30;0.30;;;22.60;45.30;;;;;;6293685;28;20031;-67
2021/10/18 03:56:17;;;;;;;1.30;0.40;;;22.60;45.30;;;;;;6293226;28;20020;-66
2021/10/18 04:03:14;;;;;;;;;;;22.60;45.30;;;;;;6297042;28;20024;-66
2021/10/18 04:06:15;;;;;;;0.43;0.38;;;22.60;45.20;;;;;;6290815;28;19932;-66
2021/10/18 04:09:15;;;;;;;0.70;0.40;;;22.60;45.30;;;;;;6271087;28;20045;-66
2021/10/18 04:12:16;;;;;;;0.32;0.30;;;22.60;45.20;;;;;;6275851;28;20104;-66
2021/10/18 04:15:16;;;;;;;0.50;0.40;;;22.60;45.30;;;;;;6294070;28;20032;-66
2021/10/18 04:18:18;;;;;;;0.45;0.30;;;22.60;45.20;;;;;;6290134;28;20025;-66
2021/10/18 04:21:19;;;;;;;0.30;0.30;;;22.60;45.20;;;;;;6278292;28;20079;-67
2021/10/18 04:24:19;;;;;;;0.65;0.40;;;22.60;45.20;;;;;;6290897;28;20024;-67
2021/10/18 04:27:20;;;;;;;0.30;0.30;;;22.60;45.20;;;;;;6288783;28;20086;-65
2021/10/18 04:30:20;;;;;;;0.57;0.30;;;22.60;45.20;;;;;;6295639;28;20035;-66
2021/10/18 04:33:21;;;;;;;0.63;0.30;;;22.60;45.20;;;;;;6294382;28;20037;-66
2021/10/18 04:36:21;;;;;;;0.40;0.22;;;22.60;45.20;;;;;;6281031;28;20033;-66
2021/10/18 04:39:22;;;;;;;0.68;0.40;;;22.60;45.20;;;;;;6295369;28;20039;-66
2021/10/18 04:42:23;;;;;;;0.35;0.25;;;22.60;45.10;;;;;;6294691;28;20028;-66
2021/10/18 04:45:24;;;;;;;0.28;0.28;;;22.60;45.20;;;;;;6293508;28;20027;-65
2021/10/18 04:48:24;;;;;;;0.68;0.40;;;22.60;45.20;;;;;;6269372;28;20040;-66
2021/10/18 04:51:25;;;;;;;0.40;0.25;;;22.60;45.20;;;;;;6276577;28;20024;-66
2021/10/18 04:54:26;;;;;;;0.40;0.40;;;22.60;45.20;;;;;;6295104;28;20032;-66
2021/10/18 04:57:26;;;;;;;0.50;0.40;;;22.60;45.20;;;;;;6290900;28;20021;-66
2021/10/18 05:00:30;;;;;;;0.60;0.50;;;22.60;45.20;;;;;;6294981;28;20169;-66
2021/10/18 05:03:31;;;;;;;0.38;0.30;;;22.60;45.20;;;;;;6289065;28;20035;-66
2021/10/18 05:06:32;;;;;;;0.60;0.43;;;22.60;45.20;;;;;;6294844;28;20028;-65
2021/10/18 05:09:33;;;;;;;0.32;0.32;;;22.60;45.20;;;;;;6292767;28;20094;-66
2021/10/18 05:12:34;;;;;;;0.35;0.35;;;22.60;45.80;;;;;;6294301;28;20460;-66
2021/10/18 05:15:35;;;;;;;0.50;0.30;;;22.60;45.20;;;;;;6294392;28;20032;-66
2021/10/18 05:18:37;;;;;;;0.55;0.40;;;22.60;45.10;;;;;;6293128;28;20146;-66
2021/10/18 05:21:37;;;;;;;0.55;0.25;;;22.60;45.20;;;;;;6294300;28;20097;-66
2021/10/18 05:24:38;;;;;;;0.43;0.40;;;22.60;45.10;;;;;;6293965;28;20029;-65
2021/10/18 05:27:38;;;;;;;0.98;0.50;;;22.60;45.10;;;;;;6288016;28;20367;-65
2021/10/18 05:30:39;;;;;;;0.65;0.40;;;22.60;45.10;;;;;;6293112;28;20517;-65
2021/10/18 05:33:41;;;;;;;2.00;0.40;;;22.60;45.10;;;;;;6269535;28;20029;-64
2021/10/18 05:36:42;;;;;;;3.58;0.77;;;22.60;45.00;;;;;;6268304;28;20032;-65
2021/10/18 05:39:42;;;;;;;6.68;1.48;;;22.60;44.70;;;;;;6267420;28;20017;-66
2021/10/18 05:42:43;;;;;;;3.35;1.20;;;22.60;44.30;;;;;;6261094;28;20025;-66
2021/10/18 05:45:44;;;;;;;3.50;1.30;;;22.60;44.40;;;;;;6269469;28;20032;-66
2021/10/18 05:48:45;;;;;;;1.70;0.75;;;22.60;44.50;;;;;;6251661;28;20032;-66
2021/10/18 05:51:45;;;;;;;1.77;1.20;;;22.60;44.50;;;;;;6266770;28;20629;-66
2021/10/18 05:54:46;;;;;;;1.65;0.88;;;22.60;44.60;;;;;;6266240;28;20037;-66
2021/10/18 05:57:55;;;;;;;2.22;0.90;;;22.60;44.60;;;;;;6282253;28;20052;-66
2021/10/18 06:00:57;;;;;;;1.80;0.88;;;22.60;44.70;;;;;;6265218;28;20446;-66
2021/10/18 06:03:59;;;;;;;1.98;0.80;;;22.60;44.70;;;;;;6290891;28;20043;-66
2021/10/18 06:07:00;;;;;;;2.55;0.90;;;22.60;44.80;;;;;;6267922;28;20398;-65
2021/10/18 06:10:00;;;;;;;5.50;0.90;;;22.60;45.10;;;;;;6269603;28;20057;-66
2021/10/18 06:13:01;;;;;;;2.63;0.90;;;22.60;45.10;;;;;;6269105;28;20025;-66
2021/10/18 06:16:02;;;;;;;2.30;1.02;;;22.60;44.90;;;;;;6281773;28;20100;-66
2021/10/18 06:19:04;;;;;;;1.77;1.00;;;22.60;44.80;;;;;;6292663;28;20036;-66
2021/10/18 06:22:04;;;;;;;2.58;1.00;;;22.60;44.90;;;;;;6293537;28;20024;-66
2021/10/18 06:25:06;;;;;;;2.30;1.05;;;22.60;44.80;;;;;;6269886;28;20028;-66
2021/10/18 06:28:07;;;;;;;1.92;1.00;;;22.60;44.80;;;;;;6269468;28;20029;-66
2021/10/18 06:31:08;;;;;;;1.55;0.90;;;22.60;44.80;;;;;;6268460;28;20082;-66
2021/10/18 06:34:09;;;;;;;2.17;0.75;;;22.60;44.80;;;;;;6270157;28;20425;-66
2021/10/18 06:37:09;;;;;;;2.97;1.30;;;22.60;44.80;;;;;;6279230;28;20106;-66
2021/10/18 06:40:10;;;;;;;2.13;1.00;;;22.60;44.80;;;;;;6294503;28;20117;-66
2021/10/18 06:43:11;;;;;;;2.28;0.77;;;22.60;44.80;;;;;;6273112;28;20086;-66
2021/10/18 06:46:12;;;;;;;2.10;0.82;;;22.60;44.80;;;;;;6269641;28;20025;-66
2021/10/18 06:49:13;;;;;;;3.25;1.10;;;22.60;44.80;;;;;;6293458;28;20032;-66
2021/10/18 06:52:14;;;;;;;1.25;0.80;;;22.60;44.80;;;;;;6291690;28;20035;-66
2021/10/18 06:55:16;;;;;;;2.22;0.98;;;22.60;44.80;;;;;;6295387;28;20428;-66
2021/10/18 06:58:17;;;;;;;1.67;0.85;;;22.60;44.80;;;;;;6294088;28;20017;-65
2021/10/18 07:01:17;;;;;;;1.15;0.93;;;22.60;44.80;;;;;;6296457;28;20409;-66
2021/10/18 07:04:18;;;;;;;1.40;0.95;;;22.60;44.80;;;;;;6278795;28;20172;-65
2021/10/18 07:07:19;;;;;;;1.38;0.85;;;22.60;44.80;;;;;;6287225;28;20048;-66
2021/10/18 07:10:20;;;;;;;0.70;0.70;;;22.60;44.80;;;;;;6298175;28;20049;-66
2021/10/18 07:13:21;;;;;;;1.30;0.90;;;22.60;44.80;;;;;;6298481;28;20044;-66
2021/10/18 07:16:21;;;;;;;1.25;0.70;;;22.60;44.70;;;;;;6295267;28;20033;-66
2021/10/18 07:19:22;;;;;;;0.80;0.63;;;22.60;44.80;;;;;;6288231;28;20114;-66
2021/10/18 07:22:26;;;;;;;1.67;0.88;;;22.60;44.70;;;;;;6297834;28;20477;-66
2021/10/18 07:25:28;;;;;;;1.27;0.88;;;22.60;44.70;;;;;;6297044;28;20398;-65
2021/10/18 07:28:29;;;;;;;1.52;0.77;;;22.60;44.70;;;;;;6298799;28;20029;-66
2021/10/18 07:31:30;;;;;;;1.85;0.82;;;22.60;44.80;;;;;;6289762;28;20513;-66
2021/10/18 07:34:32;;;;;;;1.25;0.60;;;22.60;44.80;;;;;;6298357;28;20531;-66
2021/10/18 07:37:32;;;;;;;2.13;0.80;;;22.60;44.70;;;;;;6287570;28;20029;-66
2021/10/18 07:40:33;;;;;;;1.15;0.80;;;22.60;44.80;;;;;;6292409;28;20028;-66
2021/10/18 07:43:34;;;;;;;0.82;0.52;;;22.60;44.70;;;;;;6297691;28;20485;-66
2021/10/18 07:46:34;;;;;;;1.10;0.55;;;22.60;44.70;;;;;;6290302;28;20037;-66
2021/10/18 07:49:37;;;;;;;0.73;0.65;;;22.60;44.70;;;;;;6272019;28;20153;-66
2021/10/18 07:52:38;;;;;;;1.40;0.80;;;22.60;44.60;;;;;;6270420;28;20021;-66
2021/10/18 07:55:39;;;;;;;1.08;0.75;;;22.60;44.70;;;;;;6273189;28;20025;-66
2021/10/18 07:58:39;;;;;;;0.57;0.50;;;22.60;44.70;;;;;;6272724;28;20028;-66
2021/10/18 08:01:40;;;;;;;0.90;0.68;;;22.60;44.70;;;;;;6278112;28;20016;-66
2021/10/18 08:04:40;;;;;;;0.85;0.60;;;22.60;44.60;;;;;;6297530;28;20040;-66
2021/10/18 08:07:41;;;;;;;0.85;0.73;;;22.60;44.70;;;;;;6279064;28;20037;-66
2021/10/18 08:10:42;;;;;;;1.20;0.90;;;22.60;44.70;;;;;;6272112;28;20049;-66
2021/10/18 08:13:43;;;;;;;0.77;0.55;;;22.60;44.70;;;;;;6273836;28;20029;-66
2021/10/18 08:16:44;;;;;;;0.98;0.75;;;22.60;44.70;;;;;;6272877;28;20041;-66
2021/10/18 08:19:45;;;;;;;0.88;0.60;;;22.50;45.50;;;;;;6295950;28;20039;-66
2021/10/18 08:22:46;;;;;;;1.13;0.70;;;22.40;45.90;;;;;;6290614;28;20032;-66
2021/10/18 08:25:46;;;;;;;1.48;0.73;;;22.30;46.30;;;;;;6290607;28;20028;-66
2021/10/18 08:28:47;;;;;;;0.90;0.73;;;22.30;46.50;;;;;;6296970;28;20406;-66
2021/10/18 08:31:48;;;;;;;1.13;0.65;;;22.20;46.60;;;;;;6284697;28;20094;-66
2021/10/18 08:34:48;;;;;;;1.77;0.70;;;22.20;46.80;;;;;;6272741;28;20107;-66
2021/10/18 08:41:15;;;;;;;0.88;0.60;;;22.20;47.10;;;;;;6290038;28;20025;-66
2021/10/18 08:44:16;;;;;;;0.70;0.70;;;22.10;47.30;;;;;;6271950;28;20060;-66
2021/10/18 08:47:17;;;;;;;1.42;0.70;;;22.10;47.40;;;;;;6273584;28;20459;-66
2021/10/18 08:50:18;;;;;;;1.83;1.00;;;22.10;47.50;;;;;;6270314;28;20029;-67
2021/10/18 08:53:18;;;;;;;0.80;0.60;;;22.10;47.70;;;;;;6292363;28;20032;-66
2021/10/18 08:56:20;;;;;;;0.95;0.70;;;22.10;47.80;;;;;;6293004;28;20093;-66
2021/10/18 08:59:21;;;;;;;0.77;0.60;;;22.00;47.80;;;;;;6296351;28;20490;-66
2021/10/18 09:02:37;;;;;;;0.98;0.60;;;22.00;47.90;;;;;;6279920;28;20021;-66
2021/10/18 09:05:38;;;;;;;0.50;0.50;;;22.00;47.90;;;;;;6270221;28;20474;-66
2021/10/18 09:08:49;;;;;;;1.20;0.60;;;22.00;48.00;;;;;;6292405;28;20033;-66
2021/10/18 09:11:51;;;;;;;2.25;0.77;;;22.00;48.10;;;;;;6296024;28;20056;-66
2021/10/18 09:14:52;;;;;;;0.63;0.52;;;22.00;48.10;;;;;;6295120;28;20028;-65
2021/10/18 09:17:59;;;;;;;0.95;0.70;;;21.90;48.20;;;;;;6291698;28;20048;-65
2021/10/18 09:20:59;;;;;;;1.25;0.80;;;21.90;48.20;;;;;;6294337;28;20036;-66
2021/10/18 09:24:02;;;;;;;0.95;0.80;;;21.90;48.20;;;;;;6291279;28;20029;-66
2021/10/18 09:27:17;;;;;;;1.83;0.57;;;21.90;48.40;;;;;;6275211;28;20032;-66
2021/10/18 09:30:36;;;;;;;1.30;0.68;;;21.90;48.40;;;;;;6270877;28;20437;-66
2021/10/18 09:33:39;;;;;;;1.08;0.70;;;21.90;48.50;;;;;;6290024;28;20103;-66
2021/10/18 09:36:41;;;;;;;1.02;0.70;;;21.90;48.50;;;;;;6291134;28;20016;-66
2021/10/18 09:39:47;;;;;;;0.73;0.60;;;21.90;48.60;;;;;;6294039;28;20032;-66
2021/10/18 09:43:13;;;;;;;0.93;0.65;;;21.90;48.70;;;;;;6274808;28;20021;-66
2021/10/18 09:46:23;;;;;;;0.70;0.60;;;21.90;48.70;;;;;;6272778;28;20363;-66
2021/10/18 10:51:11;;;;;;;0.90;0.63;;;21.80;49.30;;;;;;6274388;28;20029;-65
2021/10/18 10:54:37;;;;;;;0.50;0.47;;;21.80;49.20;;;;;;6274492;28;20040;-65
2021/10/18 10:57:38;;;;;;;;;;;21.80;49.20;;;;;;6291551;28;20027;-66
2021/10/18 11:00:41;;;;;;;0.70;0.52;;;21.80;49.30;;;;;;6293178;28;19905;-65
2021/10/18 11:03:42;;;;;;;0.82;0.57;;;21.80;49.40;;;;;;6273914;28;20028;-65
2021/10/18 11:06:46;;;;;;;0.43;0.43;;;21.70;49.30;;;;;;6269020;28;20025;-65
2021/10/18 11:09:47;;;;;;;1.02;0.63;;;21.80;49.40;;;;;;6298602;28;20464;-65
2021/10/18 11:12:49;;;;;;;0.60;0.50;;;21.80;49.40;;;;;;6284882;28;20025;-65
2021/10/18 11:15:50;;;;;;;0.50;0.47;;;21.80;49.30;;;;;;6273757;28;20113;-65
2021/10/18 11:18:59;;;;;;;0.65;0.60;;;21.80;49.40;;;;;;6273595;28;20490;-65
2021/10/18 11:22:01;;;;;;;0.50;0.50;;;21.80;49.40;;;;;;6279294;28;20029;-65
2021/10/18 11:25:08;;;;;;;1.00;0.50;;;21.80;49.50;;;;;;6298166;28;20490;-65
2021/10/18 11:28:10;;;;;;;0.60;0.50;;;21.80;49.40;;;;;;6279005;28;20025;-65
2021/10/18 11:31:11;;;;;;;0.73;0.60;;;21.80;49.30;;;;;;6275483;28;20105;-65
2021/10/18 11:34:13;;;;;;;1.00;0.57;;;21.80;49.30;;;;;;6273012;28;20025;-65
2021/10/18 11:37:13;;;;;;;1.35;0.68;;;21.80;49.30;;;;;;6286358;28;20437;-65
2021/10/18 11:40:16;;;;;;;0.50;0.50;;;21.80;49.30;;;;;;6297760;28;20024;-65
2021/10/18 11:43:23;;;;;;;0.50;0.43;;;21.80;49.40;;;;;;6275380;28;20109;-65
2021/10/18 11:46:24;;;;;;;0.50;0.50;;;21.80;49.30;;;;;;6269542;28;20017;-65
2021/10/18 11:49:25;;;;;;;1.23;0.70;;;21.80;49.40;;;;;;6248032;28;20021;-65
2021/10/18 11:52:25;;;;;;;0.85;0.63;;;21.80;49.40;;;;;;6263425;28;20422;-66
2021/10/18 11:55:29;;;;;;;1.40;0.70;;;21.80;49.40;;;;;;6272745;28;20025;-65
2021/10/18 11:58:37;;;;;;;1.02;0.60;;;21.80;49.40;;;;;;6293341;28;20020;-65
2021/10/18 12:01:38;;;;;;;1.38;0.60;;;21.80;49.50;;;;;;6296990;28;20405;-65
2021/10/18 12:04:58;;;;;;;1.17;0.57;;;21.80;49.40;;;;;;6296669;28;20021;-65
2021/10/18 12:07:59;;;;;;;0.52;0.40;;;21.80;49.50;;;;;;6281216;28;20032;-65
2021/10/18 12:11:02;;;;;;;0.50;0.50;;;21.80;49.50;;;;;;6272398;28;20110;-65
2021/10/18 12:14:03;;;;;;;0.98;0.55;;;21.80;49.50;;;;;;6296771;28;20113;-65
2021/10/18 12:17:04;;;;;;;1.65;0.57;;;21.80;49.50;;;;;;6291729;28;20017;-65
2021/10/18 12:20:05;;;;;;;0.43;0.43;;;21.80;49.50;;;;;;6296596;28;20036;-65
2021/10/18 12:23:08;;;;;;;0.93;0.60;;;21.80;49.50;;;;;;6286575;28;20037;-65
2021/10/18 12:26:13;;;;;;;1.75;0.68;;;21.80;49.50;;;;;;6271572;28;20472;-65
2021/10/18 12:29:16;;;;;;;0.60;0.50;;;21.80;49.50;;;;;;6271603;28;20544;-65
2021/10/18 12:32:18;;;;;;;1.05;0.60;;;21.80;49.50;;;;;;6277910;28;20029;-65
2021/10/18 12:35:19;;;;;;;0.50;0.50;;;21.80;49.60;;;;;;6271535;28;20092;-65
2021/10/18 12:38:25;;;;;;;0.63;0.50;;;21.80;49.60;;;;;;6287780;28;20077;-65
2021/10/18 12:41:26;;;;;;;0.98;0.60;;;21.80;49.60;;;;;;6282146;28;20020;-66
2021/10/18 12:44:31;;;;;;;1.88;0.85;;;21.80;49.60;;;;;;6296026;28;20036;-65
2021/10/18 12:47:35;;;;;;;;;;;21.80;49.60;;;;;;6280117;28;20107;-65
2021/10/18 12:50:39;;;;;;;0.98;0.50;;;21.80;49.70;;;;;;6272380;28;20250;-65
2021/10/18 12:53:40;;;;;;;0.70;0.50;;;21.80;49.70;;;;;;6295807;28;20028;-65
2021/10/18 12:56:40;;;;;;;0.43;0.40;;;21.80;49.70;;;;;;6288919;28;20333;-65
2021/10/18 13:00:02;;;;;;;0.50;0.43;;;21.80;49.60;;;;;;6271164;28;20383;-65
2021/10/18 13:03:09;;;;;;;0.40;0.40;;;21.80;49.80;;;;;;6269623;28;20107;-65
2021/10/18 13:06:14;;;;;;;0.85;0.60;;;21.80;49.80;;;;;;6277005;28;20029;-65
2021/10/18 13:09:14;;;;;;;0.45;0.43;;;21.80;49.80;;;;;;6295446;28;20442;-65
2021/10/18 13:12:15;;;;;;;0.50;0.40;;;21.80;49.70;;;;;;6295232;28;20037;-65
2021/10/18 13:15:17;;;;;;;0.80;0.50;;;21.80;49.80;;;;;;6295109;28;20027;-65
2021/10/18 13:18:18;;;;;;;1.20;0.55;;;21.80;49.80;;;;;;6274399;28;20028;-65
2021/10/18 13:21:19;;;;;;;0.50;0.43;;;21.80;49.80;;;;;;6273731;28;20055;-65
2021/10/18 13:24:19;;;;;;;0.75;0.60;;;21.70;49.70;;;;;;6295378;28;20024;-65
2021/10/18 13:27:21;;;;;;;0.60;0.40;;;21.80;49.90;;;;;;6287968;28;20543;-65
2021/10/18 13:30:22;;;;;;;0.57;0.43;;;21.70;49.80;;;;;;6294817;28;20033;-65
2021/10/18 13:33:22;;;;;;;0.60;0.60;;;21.70;49.80;;;;;;6289480;28;20039;-67
2021/10/18 13:36:24;;;;;;;0.50;0.50;;;21.80;49.90;;;;;;6258520;28;20036;-65
2021/10/18 13:39:26;;;;;;;1.80;0.68;;;21.70;49.80;;;;;;6284367;28;20029;-65
2021/10/18 13:42:29;;;;;;;0.77;0.40;;;21.70;49.90;;;;;;6268167;28;20070;-66
2021/10/18 13:45:30;;;;;;;1.30;0.80;;;21.70;49.80;;;;;;6276450;28;20017;-65
2021/10/18 13:48:31;;;;;;;0.93;0.60;;;21.70;49.90;;;;;;6269691;28;20029;-65
2021/10/18 13:51:32;;;;;;;1.02;0.55;;;21.70;49.90;;;;;;6271464;28;20017;-65
2021/10/18 13:54:33;;;;;;;0.47;0.40;;;21.80;50.10;;;;;;6267044;28;20051;-65
2021/10/18 13:57:34;;;;;;;0.80;0.60;;;21.80;50.90;;;;;;6269338;28;20017;-65
2021/10/18 14:00:36;;;;;;;1.48;0.60;;;21.70;50.00;;;;;;6258050;28;20022;-65
2021/10/18 14:03:36;;;;;;;0.60;0.60;;;21.80;50.10;;;;;;6288468;28;20029;-65
2021/10/18 14:06:40;;;;;;;1.88;0.50;;;21.80;50.00;;;;;;6290061;28;20048;-65
2021/10/18 14:09:42;;;;;;;0.95;0.65;;;21.80;50.10;;;;;;6272519;28;20076;-66
2021/10/18 14:12:46;;;;;;;1.67;0.60;;;21.70;50.00;;;;;;6286320;28;20028;-66
2021/10/18 14:15:47;;;;;;;1.15;0.43;;;21.80;50.10;;;;;;6300251;28;20111;-66
2021/10/18 14:18:47;;;;;;;0.40;0.40;;;21.70;50.00;;;;;;6299989;28;20025;-67
2021/10/18 14:21:48;;;;;;;2.15;0.70;;;21.70;50.10;;;;;;6295022;28;20033;-66
2021/10/18 14:24:48;;;;;;;2.00;0.50;;;21.70;50.10;;;;;;6300011;28;20051;-66
2021/10/18 14:27:49;;;;;;;0.75;0.60;;;21.70;50.10;;;;;;6294879;28;20085;-66
2021/10/18 14:30:49;;;;;;;0.60;0.57;;;21.80;50.20;;;;;;6299032;28;20057;-66
2021/10/18 14:33:50;;;;;;;2.20;0.70;;;21.80;50.20;;;;;;6275925;28;20029;-66
2021/10/18 14:36:52;;;;;;;1.23;0.70;;;21.70;50.10;;;;;;6274330;28;20052;-66
2021/10/18 14:39:53;;;;;;;1.52;0.63;;;21.70;50.20;;;;;;6274536;28;20035;-66
2021/10/18 14:42:53;;;;;;;0.82;0.50;;;21.70;50.10;;;;;;6276888;28;20474;-66
2021/10/18 14:45:54;;;;;;;1.00;0.60;;;21.70;50.10;;;;;;6271883;28;20029;-66
2021/10/18 14:48:55;;;;;;;1.27;0.60;;;21.70;50.10;;;;;;6274328;28;20037;-66
2021/10/18 14:51:56;;;;;;;0.82;0.47;;;21.70;50.10;;;;;;6277498;28;20041;-66
2021/10/18 14:54:56;;;;;;;1.48;0.57;;;21.70;50.10;;;;;;6274275;28;20120;-66
2021/10/18 14:57:57;;;;;;;0.40;0.40;;;21.70;50.10;;;;;;6272681;28;20461;-67
2021/10/18 15:00:57;;;;;;;0.95;0.47;;;21.70;50.20;;;;;;6277514;28;20028;-69
2021/10/18 15:03:58;;;;;;;0.55;0.50;;;21.70;50.20;;;;;;6299487;28;20052;-68
2021/10/18 15:07:00;;;;;;;0.98;0.50;;;21.70;50.20;;;;;;6287342;28;20111;-66
2021/10/18 15:10:00;;;;;;;0.82;0.50;;;21.70;50.20;;;;;;6274009;28;20052;-66
2021/10/18 15:13:03;;;;;;;2.25;0.50;;;21.70;50.20;;;;;;6278342;28;20033;-66
2021/10/18 15:16:05;;;;;;;0.50;0.50;;;21.70;50.40;;;;;;6274778;28;20386;-69
2021/10/18 15:19:06;;;;;;;0.63;0.52;;;21.70;50.20;;;;;;6274567;28;20029;-66
2021/10/18 15:22:08;;;;;;;1.10;0.68;;;21.70;50.30;;;;;;6282330;28;20032;-67
2021/10/18 15:25:10;;;;;;;1.65;0.60;;;21.70;50.30;;;;;;6298434;28;20131;-66
2021/10/18 15:28:10;;;;;;;0.85;0.63;;;21.70;50.20;;;;;;6292174;28;20025;-66
2021/10/18 15:31:11;;;;;;;0.70;0.57;;;21.70;50.20;;;;;;6290945;28;20265;-66
2021/10/18 15:34:11;;;;;;;1.25;0.60;;;21.70;50.30;;;;;;6274070;28;20493;-67
2021/10/18 15:37:12;;;;;;;0.77;0.52;;;21.70;50.30;;;;;;6280539;28;20039;-66
2021/10/18 15:40:13;;;;;;;0.70;0.50;;;21.70;50.30;;;;;;6286295;28;20021;-66
2021/10/18 15:43:14;;;;;;;0.70;0.50;;;21.70;51.00;;;;;;6271216;28;20086;-66
2021/10/18 15:46:15;;;;;;;1.83;0.60;;;21.70;50.30;;;;;;6273263;28;20028;-66
2021/10/18 15:49:16;;;;;;;0.85;0.43;;;21.70;50.30;;;;;;6273512;28;20021;-65
2021/10/18 15:52:17;;;;;;;0.52;0.40;;;21.70;50.40;;;;;;6287343;28;20029;-66
2021/10/18 15:55:18;;;;;;;0.80;0.60;;;21.70;50.30;;;;;;6295977;28;20025;-66
2021/10/18 15:58:19;;;;;;;0.45;0.40;;;21.70;50.40;;;;;;6293057;28;20093;-67
2021/10/18 16:01:19;;;;;;;0.43;0.40;;;21.70;50.40;;;;;;6290691;28;20517;-67
2021/10/18 16:04:20;;;;;;;0.40;0.40;;;21.70;50.40;;;;;;6248358;28;20502;-67
2021/10/18 16:07:20;;;;;;;0.43;0.40;;;21.70;50.40;;;;;;6269023;28;20036;-67
2021/10/18 16:10:21;;;;;;;0.50;0.40;;;21.70;50.40;;;;;;6297578;28;20090;-67
2021/10/18 16:13:23;;;;;;;0.70;0.43;;;21.70;50.40;;;;;;6292120;28;20028;-67
2021/10/18 16:16:25;;;;;;;0.40;0.40;;;21.70;50.40;;;;;;6294952;28;20070;-67
2021/10/18 16:19:26;;;;;;;0.77;0.50;;;21.70;50.80;;;;;;6271198;28;20013;-67
2021/10/18 16:22:26;;;;;;;0.57;0.40;;;21.70;50.40;;;;;;6276457;28;20028;-67
2021/10/18 16:25:27;;;;;;;0.75;0.60;;;21.70;50.40;;;;;;6272721;28;20494;-67
2021/10/18 16:28:28;;;;;;;0.70;0.50;;;21.70;50.40;;;;;;6278360;28;20117;-67
2021/10/18 16:31:30;;;;;;;0.40;0.40;;;21.70;50.50;;;;;;6279633;28;20024;-67
2021/10/18 16:34:31;;;;;;;0.43;0.40;;;21.70;50.40;;;;;;6295060;28;20060;-67
2021/10/18 16:37:32;;;;;;;0.90;0.60;;;21.70;50.50;;;;;;6293289;28;20043;-67
2021/10/18 16:40:32;;;;;;;1.00;0.50;;;21.70;50.50;;;;;;6292403;28;20102;-67
2021/10/18 16:43:34;;;;;;;0.60;0.40;;;21.70;50.50;;;;;;6269861;28;20552;-67
2021/10/18 16:46:35;;;;;;;0.60;0.50;;;21.70;50.50;;;;;;6277694;28;20029;-67
2021/10/18 16:49:37;;;;;;;0.40;0.40;;;21.70;50.50;;;;;;6244612;28;20083;-67
2021/10/18 16:52:37;;;;;;;1.15;0.50;;;21.70;50.50;;;;;;6277147;28;20020;-67
2021/10/18 16:55:41;;;;;;;0.20;0.20;;;21.70;50.50;;;;;;6293755;28;20118;-67